sensor_id;sensor_type;location;lat;lon;timestamp;pressure;altitude;pressure_sealevel;temperature;humidity
5522;BME280;2783;48.730;8.006;2023-02-14T00:01:07;102065.91;;;4.20;100.00
5522;BME280;2783;48.730;8.006;2023-02-14T00:03:32;102059.75;;;4.19;100.00
5522;BME280;2783;48.730;8.006;2023-02-14T00:06:03;102062.31;;;4.16;100.00
5522;BME280;2783;48.730;8.006;2023-02-14T00:08:29;102067.56;;;4.16;100.00
5522;BME280;2783;48.730;8.006;2023-02-14T00:10:54;102064.06;;;4.17;100.00
5522;BME280;2783;48.730;8.006;2023-02-14T00:13:19;102052.63;;;4.15;100.00
5522;BME280;2783;48.730;8.006;2023-02-14T00:15:44;102049.06;;;4.13;100.00
5522;BME280;2783;48.730;8.006;2023-02-14T00:18:10;102055.78;;;4.02;100.00
5522;BME280;2783;48.730;8.006;2023-02-14T00:20:35;102057.50;;;4.00;100.00
5522;BME280;2783;48.730;8.006;2023-02-14T00:23:01;102058.28;;;3.97;100.00
5522;BME280;2783;48.730;8.006;2023-02-14T00:25:26;102057.53;;;4.01;100.00
5522;BME280;2783;48.730;8.006;2023-02-14T00:27:51;102046.97;;;4.00;100.00
5522;BME280;2783;48.730;8.006;2023-02-14T00:30:18;102046.97;;;4.00;100.00
5522;BME280;2783;48.730;8.006;2023-02-14T00:32:43;102053.09;;;4.00;100.00
5522;BME280;2783;48.730;8.006;2023-02-14T00:35:09;102047.84;;;4.00;100.00
5522;BME280;2783;48.730;8.006;2023-02-14T00:37:34;102054.75;;;3.97;100.00
5522;BME280;2783;48.730;8.006;2023-02-14T00:40:00;102045.16;;;3.99;100.00
5522;BME280;2783;48.730;8.006;2023-02-14T00:42:25;102045.25;;;4.02;100.00
5522;BME280;2783;48.730;8.006;2023-02-14T00:44:50;102032.84;;;3.96;100.00
5522;BME280;2783;48.730;8.006;2023-02-14T00:47:16;102029.22;;;3.93;100.00
5522;BME280;2783;48.730;8.006;2023-02-14T00:49:41;102047.03;;;4.03;100.00
5522;BME280;2783;48.730;8.006;2023-02-14T00:52:06;102043.41;;;3.98;100.00
5522;BME280;2783;48.730;8.006;2023-02-14T00:54:31;102045.06;;;3.94;100.00
5522;BME280;2783;48.730;8.006;2023-02-14T00:56:57;102048.31;;;3.86;100.00
5522;BME280;2783;48.730;8.006;2023-02-14T00:59:22;102050.84;;;3.81;100.00
5522;BME280;2783;48.730;8.006;2023-02-14T01:01:48;102049.00;;;3.79;100.00
5522;BME280;2783;48.730;8.006;2023-02-14T01:04:13;102054.81;;;3.67;100.00
5522;BME280;2783;48.730;8.006;2023-02-14T01:06:38;102053.97;;;3.67;100.00
5522;BME280;2783;48.730;8.006;2023-02-14T01:09:03;102056.31;;;3.58;100.00
5522;BME280;2783;48.730;8.006;2023-02-14T01:11:29;102051.25;;;3.64;100.00
5522;BME280;2783;48.730;8.006;2023-02-14T01:13:55;102049.47;;;3.64;100.00
5522;BME280;2783;48.730;8.006;2023-02-14T01:16:21;102053.88;;;3.64;100.00
5522;BME280;2783;48.730;8.006;2023-02-14T01:18:47;102057.41;;;3.66;100.00
5522;BME280;2783;48.730;8.006;2023-02-14T01:23:38;102059.13;;;3.64;100.00
5522;BME280;2783;48.730;8.006;2023-02-14T01:26:04;102060.03;;;3.66;100.00
5522;BME280;2783;48.730;8.006;2023-02-14T01:28:30;102061.78;;;3.64;100.00
5522;BME280;2783;48.730;8.006;2023-02-14T01:30:55;102055.75;;;3.69;100.00
5522;BME280;2783;48.730;8.006;2023-02-14T01:33:20;102060.31;;;3.75;100.00
5522;BME280;2783;48.730;8.006;2023-02-14T01:35:45;102059.44;;;3.76;100.00
5522;BME280;2783;48.730;8.006;2023-02-14T01:38:11;102049.63;;;3.69;100.00
5522;BME280;2783;48.730;8.006;2023-02-14T01:40:41;102052.19;;;3.67;100.00
5522;BME280;2783;48.730;8.006;2023-02-14T01:43:10;102056.69;;;3.71;100.00
5522;BME280;2783;48.730;8.006;2023-02-14T01:45:36;102049.06;;;3.49;100.00
5522;BME280;2783;48.730;8.006;2023-02-14T01:48:02;102050.97;;;3.55;100.00
5522;BME280;2783;48.730;8.006;2023-02-14T01:50:29;102047.31;;;3.50;100.00
5522;BME280;2783;48.730;8.006;2023-02-14T01:52:58;102045.63;;;3.52;100.00
5522;BME280;2783;48.730;8.006;2023-02-14T01:55:28;102044.59;;;3.47;100.00
5522;BME280;2783;48.730;8.006;2023-02-14T01:57:59;102043.75;;;3.48;100.00
5522;BME280;2783;48.730;8.006;2023-02-14T02:00:26;102042.13;;;3.53;100.00
5522;BME280;2783;48.730;8.006;2023-02-14T02:03:10;102048.19;;;3.49;100.00
5522;BME280;2783;48.730;8.006;2023-02-14T02:05:39;102044.72;;;3.51;100.00
5522;BME280;2783;48.730;8.006;2023-02-14T02:08:06;102043.94;;;3.54;100.00
5522;BME280;2783;48.730;8.006;2023-02-14T02:10:31;102051.78;;;3.52;100.00
5522;BME280;2783;48.730;8.006;2023-02-14T02:12:58;102049.00;;;3.48;100.00
5522;BME280;2783;48.730;8.006;2023-02-14T02:15:25;102043.88;;;3.51;100.00
5522;BME280;2783;48.730;8.006;2023-02-14T02:30:49;102029.13;;;3.57;100.00
5522;BME280;2783;48.730;8.006;2023-02-14T02:41:05;102028.59;;;3.69;100.00
5522;BME280;2783;48.730;8.006;2023-02-14T02:48:46;102028.25;;;3.57;100.00
5522;BME280;2783;48.730;8.006;2023-02-14T02:51:38;102021.09;;;3.53;100.00
5522;BME280;2783;48.730;8.006;2023-02-14T02:54:33;102016.03;;;3.59;100.00
5522;BME280;2783;48.730;8.006;2023-02-14T02:57:00;102021.13;;;3.54;100.00
5522;BME280;2783;48.730;8.006;2023-02-14T02:59:31;102025.59;;;3.57;100.00
5522;BME280;2783;48.730;8.006;2023-02-14T03:04:25;102026.19;;;3.47;100.00
5522;BME280;2783;48.730;8.006;2023-02-14T03:07:10;102021.00;;;3.50;100.00
5522;BME280;2783;48.730;8.006;2023-02-14T03:09:55;102031.78;;;3.57;100.00
5522;BME280;2783;48.730;8.006;2023-02-14T03:14:50;102038.28;;;3.40;100.00
5522;BME280;2783;48.730;8.006;2023-02-14T03:20:20;102031.09;;;3.35;100.00
5522;BME280;2783;48.730;8.006;2023-02-14T03:23:20;102031.19;;;3.38;100.00
5522;BME280;2783;48.730;8.006;2023-02-14T03:25:41;102027.81;;;3.42;100.00
5522;BME280;2783;48.730;8.006;2023-02-14T03:30:50;102029.72;;;3.47;100.00
5522;BME280;2783;48.730;8.006;2023-02-14T03:38:24;102023.25;;;3.36;100.00
5522;BME280;2783;48.730;8.006;2023-02-14T03:40:59;102025.91;;;3.38;100.00
5522;BME280;2783;48.730;8.006;2023-02-14T03:46:02;102034.69;;;3.37;100.00
5522;BME280;2783;48.730;8.006;2023-02-14T03:48:29;102036.34;;;3.35;100.00
5522;BME280;2783;48.730;8.006;2023-02-14T03:50:56;102027.69;;;3.37;100.00
5522;BME280;2783;48.730;8.006;2023-02-14T03:53:23;102030.13;;;3.31;100.00
5522;BME280;2783;48.730;8.006;2023-02-14T03:58:36;102036.03;;;3.23;100.00
5522;BME280;2783;48.730;8.006;2023-02-14T04:01:07;102032.72;;;3.30;100.00
5522;BME280;2783;48.730;8.006;2023-02-14T04:03:34;102035.09;;;3.21;100.00
5522;BME280;2783;48.730;8.006;2023-02-14T04:06:03;102033.44;;;3.24;100.00
5522;BME280;2783;48.730;8.006;2023-02-14T04:08:28;102025.69;;;3.29;100.00
5522;BME280;2783;48.730;8.006;2023-02-14T04:10:55;102034.50;;;3.31;100.00
5522;BME280;2783;48.730;8.006;2023-02-14T04:13:21;102031.09;;;3.35;100.00
5522;BME280;2783;48.730;8.006;2023-02-14T04:15:46;102028.47;;;3.35;100.00
5522;BME280;2783;48.730;8.006;2023-02-14T04:18:12;102033.00;;;3.39;100.00
5522;BME280;2783;48.730;8.006;2023-02-14T04:20:55;102032.16;;;3.41;100.00
5522;BME280;2783;48.730;8.006;2023-02-14T04:23:21;102031.19;;;3.38;100.00
5522;BME280;2783;48.730;8.006;2023-02-14T04:25:46;102032.19;;;3.43;100.00
5522;BME280;2783;48.730;8.006;2023-02-14T04:28:12;102028.88;;;3.48;100.00
5522;BME280;2783;48.730;8.006;2023-02-14T04:30:37;102030.75;;;3.52;100.00
5522;BME280;2783;48.730;8.006;2023-02-14T04:33:02;102027.25;;;3.53;100.00
5522;BME280;2783;48.730;8.006;2023-02-14T04:35:28;102036.00;;;3.52;100.00
5522;BME280;2783;48.730;8.006;2023-02-14T04:37:53;102042.09;;;3.51;100.00
5522;BME280;2783;48.730;8.006;2023-02-14T04:40:19;102031.28;;;3.41;100.00
5522;BME280;2783;48.730;8.006;2023-02-14T04:42:44;102037.19;;;3.32;100.00
5522;BME280;2783;48.730;8.006;2023-02-14T04:45:10;102025.84;;;3.35;100.00
5522;BME280;2783;48.730;8.006;2023-02-14T04:47:35;102033.06;;;3.42;100.00
5522;BME280;2783;48.730;8.006;2023-02-14T04:50:01;102024.22;;;3.40;100.00
5522;BME280;2783;48.730;8.006;2023-02-14T04:52:26;102021.66;;;3.41;100.00
5522;BME280;2783;48.730;8.006;2023-02-14T04:54:51;102025.91;;;3.38;100.00
5522;BME280;2783;48.730;8.006;2023-02-14T04:57:17;102025.06;;;3.37;100.00
5522;BME280;2783;48.730;8.006;2023-02-14T04:59:42;102032.88;;;3.34;100.00
5522;BME280;2783;48.730;8.006;2023-02-14T05:02:07;102028.50;;;3.36;100.00
5522;BME280;2783;48.730;8.006;2023-02-14T05:04:33;102026.69;;;3.34;100.00
5522;BME280;2783;48.730;8.006;2023-02-14T05:06:58;102027.75;;;3.40;100.00
5522;BME280;2783;48.730;8.006;2023-02-14T05:09:23;102024.97;;;3.34;100.00
5522;BME280;2783;48.730;8.006;2023-02-14T05:11:48;102025.00;;;3.36;100.00
5522;BME280;2783;48.730;8.006;2023-02-14T05:14:14;102020.47;;;3.30;100.00
5522;BME280;2783;48.730;8.006;2023-02-14T05:16:39;102018.81;;;3.34;100.00
5522;BME280;2783;48.730;8.006;2023-02-14T05:19:04;102018.00;;;3.36;100.00
5522;BME280;2783;48.730;8.006;2023-02-14T05:21:29;102020.81;;;3.42;100.00
5522;BME280;2783;48.730;8.006;2023-02-14T05:23:57;102023.41;;;3.41;100.00
5522;BME280;2783;48.730;8.006;2023-02-14T05:26:22;102018.94;;;3.38;100.00
5522;BME280;2783;48.730;8.006;2023-02-14T05:28:48;102019.78;;;3.37;100.00
5522;BME280;2783;48.730;8.006;2023-02-14T05:31:13;102022.34;;;3.34;100.00
5522;BME280;2783;48.730;8.006;2023-02-14T05:33:38;102023.44;;;3.42;100.00
5522;BME280;2783;48.730;8.006;2023-02-14T05:36:03;102025.22;;;3.43;100.00
5522;BME280;2783;48.730;8.006;2023-02-14T05:38:29;102024.44;;;3.46;100.00
5522;BME280;2783;48.730;8.006;2023-02-14T05:40:54;102022.72;;;3.48;100.00
5522;BME280;2783;48.730;8.006;2023-02-14T05:43:20;102032.94;;;3.37;100.00
5522;BME280;2783;48.730;8.006;2023-02-14T05:45:45;102031.28;;;3.41;100.00
5522;BME280;2783;48.730;8.006;2023-02-14T05:48:11;102026.19;;;3.47;100.00
5522;BME280;2783;48.730;8.006;2023-02-14T05:50:37;102031.63;;;3.53;100.00
5522;BME280;2783;48.730;8.006;2023-02-14T05:53:02;102037.69;;;3.50;100.00
5522;BME280;2783;48.730;8.006;2023-02-14T05:55:28;102038.50;;;3.48;100.00
5522;BME280;2783;48.730;8.006;2023-02-14T05:57:54;102040.38;;;3.52;100.00
5522;BME280;2783;48.730;8.006;2023-02-14T06:00:19;102043.13;;;3.56;100.00
5522;BME280;2783;48.730;8.006;2023-02-14T06:02:45;102041.44;;;3.58;100.00
5522;BME280;2783;48.730;8.006;2023-02-14T06:05:10;102044.19;;;3.63;100.00
5522;BME280;2783;48.730;8.006;2023-02-14T06:07:35;102048.56;;;3.62;100.00
5522;BME280;2783;48.730;8.006;2023-02-14T06:10:00;102044.97;;;3.59;100.00
5522;BME280;2783;48.730;8.006;2023-02-14T06:12:26;102050.22;;;3.59;100.00
5522;BME280;2783;48.730;8.006;2023-02-14T06:14:51;102054.28;;;3.48;100.00
5522;BME280;2783;48.730;8.006;2023-02-14T06:17:16;102046.88;;;3.35;100.00
5522;BME280;2783;48.730;8.006;2023-02-14T06:19:41;102052.41;;;3.44;100.00
5522;BME280;2783;48.730;8.006;2023-02-14T06:22:08;102049.72;;;3.41;100.00
5522;BME280;2783;48.730;8.006;2023-02-14T06:24:33;102048.03;;;3.44;100.00
5522;BME280;2783;48.730;8.006;2023-02-14T06:26:59;102056.91;;;3.48;100.00
5522;BME280;2783;48.730;8.006;2023-02-14T06:29:24;102055.22;;;3.50;100.00
5522;BME280;2783;48.730;8.006;2023-02-14T06:31:50;102050.97;;;3.55;100.00
5522;BME280;2783;48.730;8.006;2023-02-14T06:34:15;102051.91;;;3.57;100.00
5522;BME280;2783;48.730;8.006;2023-02-14T06:36:40;102052.34;;;3.41;100.00
5522;BME280;2783;48.730;8.006;2023-02-14T06:39:06;102055.00;;;3.42;100.00
5522;BME280;2783;48.730;8.006;2023-02-14T06:41:31;102052.41;;;3.44;100.00
5522;BME280;2783;48.730;8.006;2023-02-14T06:43:56;102044.66;;;3.48;100.00
5522;BME280;2783;48.730;8.006;2023-02-14T06:46:21;102042.97;;;3.50;100.00
5522;BME280;2783;48.730;8.006;2023-02-14T06:48:47;102053.53;;;3.52;100.00
5522;BME280;2783;48.730;8.006;2023-02-14T06:51:12;102057.84;;;3.50;100.00
5522;BME280;2783;48.730;8.006;2023-02-14T06:53:37;102054.50;;;3.55;100.00
5522;BME280;2783;48.730;8.006;2023-02-14T06:56:03;102061.41;;;3.52;100.00
5522;BME280;2783;48.730;8.006;2023-02-14T06:58:28;102060.72;;;3.57;100.00
5522;BME280;2783;48.730;8.006;2023-02-14T07:00:54;102059.88;;;3.60;100.00
5522;BME280;2783;48.730;8.006;2023-02-14T07:03:19;102063.38;;;3.59;100.00
5522;BME280;2783;48.730;8.006;2023-02-14T07:05:44;102072.06;;;3.56;100.00
5522;BME280;2783;48.730;8.006;2023-02-14T07:08:10;102072.09;;;3.58;100.00
5522;BME280;2783;48.730;8.006;2023-02-14T07:10:35;102073.03;;;3.60;100.00
5522;BME280;2783;48.730;8.006;2023-02-14T07:13:01;102070.50;;;3.63;100.00
5522;BME280;2783;48.730;8.006;2023-02-14T07:15:26;102075.69;;;3.60;100.00
5522;BME280;2783;48.730;8.006;2023-02-14T07:17:51;102080.69;;;3.51;100.00
5522;BME280;2783;48.730;8.006;2023-02-14T07:20:17;102079.78;;;3.50;100.00
5522;BME280;2783;48.730;8.006;2023-02-14T07:22:42;102071.03;;;3.51;100.00
5522;BME280;2783;48.730;8.006;2023-02-14T07:25:08;102070.28;;;3.55;100.00
5522;BME280;2783;48.730;8.006;2023-02-14T07:27:33;102076.56;;;3.60;100.00
5522;BME280;2783;48.730;8.006;2023-02-14T07:29:58;102075.94;;;3.69;100.00
5522;BME280;2783;48.730;8.006;2023-02-14T07:32:23;102076.91;;;3.72;100.00
5522;BME280;2783;48.730;8.006;2023-02-14T07:34:49;102075.09;;;3.70;100.00
5522;BME280;2783;48.730;8.006;2023-02-14T07:37:14;102070.50;;;3.63;100.00
5522;BME280;2783;48.730;8.006;2023-02-14T07:39:42;102071.50;;;3.68;100.00
5522;BME280;2783;48.730;8.006;2023-02-14T07:42:07;102072.38;;;3.67;100.00
5522;BME280;2783;48.730;8.006;2023-02-14T07:44:33;102071.63;;;3.72;100.00
5522;BME280;2783;48.730;8.006;2023-02-14T07:46:58;102068.31;;;3.79;100.00
5522;BME280;2783;48.730;8.006;2023-02-14T07:49:23;102071.06;;;3.84;100.00
5522;BME280;2783;48.730;8.006;2023-02-14T07:51:49;102063.97;;;3.80;100.00
5522;BME280;2783;48.730;8.006;2023-02-14T07:54:14;102069.16;;;3.77;100.00
5522;BME280;2783;48.730;8.006;2023-02-14T07:56:39;102065.41;;;3.69;100.00
5522;BME280;2783;48.730;8.006;2023-02-14T07:59:04;102065.59;;;3.75;100.00
5522;BME280;2783;48.730;8.006;2023-02-14T08:01:30;102062.28;;;3.82;100.00
5522;BME280;2783;48.730;8.006;2023-02-14T08:03:55;102060.66;;;3.87;100.00
5522;BME280;2783;48.730;8.006;2023-02-14T08:06:20;102060.66;;;3.87;100.00
5522;BME280;2783;48.730;8.006;2023-02-14T08:08:45;102066.94;;;3.92;100.00
5522;BME280;2783;48.730;8.006;2023-02-14T08:11:11;102065.28;;;3.97;100.00
5522;BME280;2783;48.730;8.006;2023-02-14T08:13:56;102056.66;;;4.02;100.00
5522;BME280;2783;48.730;8.006;2023-02-14T08:16:22;102060.38;;;4.11;100.00
5522;BME280;2783;48.730;8.006;2023-02-14T08:18:47;102066.56;;;4.11;100.00
5522;BME280;2783;48.730;8.006;2023-02-14T08:21:12;102071.75;;;4.08;100.00
5522;BME280;2783;48.730;8.006;2023-02-14T08:23:39;102077.09;;;4.11;100.00
5522;BME280;2783;48.730;8.006;2023-02-14T08:26:05;102067.53;;;4.15;100.00
5522;BME280;2783;48.730;8.006;2023-02-14T08:28:30;102074.59;;;4.17;100.00
5522;BME280;2783;48.730;8.006;2023-02-14T08:30:57;102071.91;;;4.14;100.00
5522;BME280;2783;48.730;8.006;2023-02-14T08:33:22;102076.06;;;4.06;100.00
5522;BME280;2783;48.730;8.006;2023-02-14T08:35:48;102075.94;;;4.00;100.00
5522;BME280;2783;48.730;8.006;2023-02-14T08:38:15;102076.94;;;4.05;100.00
5522;BME280;2783;48.730;8.006;2023-02-14T08:40:40;102070.94;;;4.11;100.00
5522;BME280;2783;48.730;8.006;2023-02-14T08:43:05;102070.69;;;4.01;100.00
5522;BME280;2783;48.730;8.006;2023-02-14T08:45:31;102069.00;;;4.03;100.00
5522;BME280;2783;48.730;8.006;2023-02-14T08:48:03;102071.81;;;4.11;100.00
5522;BME280;2783;48.730;8.006;2023-02-14T08:50:28;102069.91;;;4.05;100.00
5522;BME280;2783;48.730;8.006;2023-02-14T08:52:53;102070.16;;;4.15;100.00
5522;BME280;2783;48.730;8.006;2023-02-14T08:55:19;102068.66;;;4.24;100.00
5522;BME280;2783;48.730;8.006;2023-02-14T08:57:44;102068.00;;;4.33;100.00
5522;BME280;2783;48.730;8.006;2023-02-14T09:00:09;102058.50;;;4.39;100.00
5522;BME280;2783;48.730;8.006;2023-02-14T09:02:35;102061.13;;;4.39;100.00
5522;BME280;2783;48.730;8.006;2023-02-14T09:05:00;102064.72;;;4.41;100.00
5522;BME280;2783;48.730;8.006;2023-02-14T09:07:25;102054.28;;;4.46;100.00
5522;BME280;2783;48.730;8.006;2023-02-14T09:09:51;102059.66;;;4.50;100.00
5522;BME280;2783;48.730;8.006;2023-02-14T09:12:17;102058.88;;;4.54;100.00
5522;BME280;2783;48.730;8.006;2023-02-14T09:14:43;102059.69;;;4.52;100.00
5522;BME280;2783;48.730;8.006;2023-02-14T09:17:09;102053.56;;;4.51;100.00
5522;BME280;2783;48.730;8.006;2023-02-14T09:19:35;102058.81;;;4.51;100.00
5522;BME280;2783;48.730;8.006;2023-02-14T09:22:01;102057.50;;;4.34;100.00
5522;BME280;2783;48.730;8.006;2023-02-14T09:24:28;102045.19;;;4.33;100.00
5522;BME280;2783;48.730;8.006;2023-02-14T09:26:53;102048.03;;;4.42;100.00
5522;BME280;2783;48.730;8.006;2023-02-14T09:29:19;102052.41;;;4.42;100.00
5522;BME280;2783;48.730;8.006;2023-02-14T09:31:44;102052.19;;;4.33;100.00
5522;BME280;2783;48.730;8.006;2023-02-14T09:34:09;102053.78;;;4.26;100.00
5522;BME280;2783;48.730;8.006;2023-02-14T09:36:53;102059.72;;;4.18;100.00
5522;BME280;2783;48.730;8.006;2023-02-14T09:39:37;102046.81;;;4.28;100.00
5522;BME280;2783;48.730;8.006;2023-02-14T09:47:17;102039.19;;;4.40;100.00
5522;BME280;2783;48.730;8.006;2023-02-14T09:49:44;102040.28;;;4.48;100.00
5522;BME280;2783;48.730;8.006;2023-02-14T09:52:13;102036.75;;;4.46;100.00
5522;BME280;2783;48.730;8.006;2023-02-14T09:54:41;102040.22;;;4.45;100.00
5522;BME280;2783;48.730;8.006;2023-02-14T09:57:10;102042.31;;;4.24;100.00
5522;BME280;2783;48.730;8.006;2023-02-14T10:00:12;102049.25;;;4.21;100.00
5522;BME280;2783;48.730;8.006;2023-02-14T10:07:54;102042.03;;;4.48;100.00
5522;BME280;2783;48.730;8.006;2023-02-14T10:10:21;102044.19;;;4.64;100.00
5522;BME280;2783;48.730;8.006;2023-02-14T10:12:51;102047.50;;;4.57;100.00
5522;BME280;2783;48.730;8.006;2023-02-14T10:15:18;102039.56;;;4.55;100.00
5522;BME280;2783;48.730;8.006;2023-02-14T10:17:47;102028.28;;;4.59;100.00
5522;BME280;2783;48.730;8.006;2023-02-14T10:20:23;102032.91;;;4.69;100.00
5522;BME280;2783;48.730;8.006;2023-02-14T10:23:02;102032.28;;;4.81;100.00
5522;BME280;2783;48.730;8.006;2023-02-14T10:25:39;102030.03;;;4.97;100.00
5522;BME280;2783;48.730;8.006;2023-02-14T10:28:08;102037.25;;;5.07;100.00
5522;BME280;2783;48.730;8.006;2023-02-14T10:30:38;102035.63;;;5.12;100.00
5522;BME280;2783;48.730;8.006;2023-02-14T10:33:15;102033.06;;;5.15;100.00
5522;BME280;2783;48.730;8.006;2023-02-14T10:45:41;102028.03;;;5.27;100.00
5522;BME280;2783;48.730;8.006;2023-02-14T10:53:26;102007.09;;;5.35;100.00
5522;BME280;2783;48.730;8.006;2023-02-14T10:58:51;102001.06;;;5.42;100.00
5522;BME280;2783;48.730;8.006;2023-02-14T11:01:18;102005.66;;;5.52;100.00
5522;BME280;2783;48.730;8.006;2023-02-14T11:04:17;101993.44;;;5.57;100.00
5522;BME280;2783;48.730;8.006;2023-02-14T11:06:37;101989.81;;;5.52;99.32
5522;BME280;2783;48.730;8.006;2023-02-14T11:09:02;101982.56;;;5.40;99.98
5522;BME280;2783;48.730;8.006;2023-02-14T11:16:43;101983.66;;;5.50;98.76
5522;BME280;2783;48.730;8.006;2023-02-14T11:21:37;101987.28;;;5.57;98.70
5522;BME280;2783;48.730;8.006;2023-02-14T11:24:03;101976.59;;;5.51;98.69
5522;BME280;2783;48.730;8.006;2023-02-14T11:26:40;101976.66;;;5.54;99.29
5522;BME280;2783;48.730;8.006;2023-02-14T11:29:11;101982.00;;;5.55;98.79
5522;BME280;2783;48.730;8.006;2023-02-14T11:31:37;101970.63;;;5.61;99.05
5522;BME280;2783;48.730;8.006;2023-02-14T11:34:04;101961.00;;;5.63;100.00
5522;BME280;2783;48.730;8.006;2023-02-14T11:36:30;101961.97;;;5.68;100.00
5522;BME280;2783;48.730;8.006;2023-02-14T11:39:02;101969.94;;;5.71;100.00
5522;BME280;2783;48.730;8.006;2023-02-14T11:41:44;101954.16;;;5.74;100.00
5522;BME280;2783;48.730;8.006;2023-02-14T11:44:13;101960.25;;;5.70;99.45
5522;BME280;2783;48.730;8.006;2023-02-14T11:46:39;101954.97;;;5.68;99.69
5522;BME280;2783;48.730;8.006;2023-02-14T11:49:25;101948.81;;;5.71;99.38
5522;BME280;2783;48.730;8.006;2023-02-14T11:51:52;101944.44;;;5.70;99.41
5522;BME280;2783;48.730;8.006;2023-02-14T11:54:27;101945.28;;;5.70;99.63
5522;BME280;2783;48.730;8.006;2023-02-14T11:56:54;101944.16;;;5.55;100.00
5522;BME280;2783;48.730;8.006;2023-02-14T12:01:51;101940.09;;;5.73;99.40
5522;BME280;2783;48.730;8.006;2023-02-14T12:04:18;101936.53;;;5.71;99.37
5522;BME280;2783;48.730;8.006;2023-02-14T12:06:46;101940.03;;;5.72;98.83
5522;BME280;2783;48.730;8.006;2023-02-14T12:09:12;101944.41;;;5.68;99.25
5522;BME280;2783;48.730;8.006;2023-02-14T12:12:05;101927.66;;;5.68;99.62
5522;BME280;2783;48.730;8.006;2023-02-14T12:14:39;101931.91;;;5.60;99.89
5522;BME280;2783;48.730;8.006;2023-02-14T12:19:49;101931.31;;;5.76;99.32
5522;BME280;2783;48.730;8.006;2023-02-14T12:22:34;101926.03;;;5.76;98.88
5522;BME280;2783;48.730;8.006;2023-02-14T12:25:17;101925.97;;;5.71;99.25
5522;BME280;2783;48.730;8.006;2023-02-14T12:27:53;101924.97;;;5.65;99.05
5522;BME280;2783;48.730;8.006;2023-02-14T12:30:22;101917.09;;;5.66;99.71
5522;BME280;2783;48.730;8.006;2023-02-14T12:32:51;101903.91;;;5.68;98.70
5522;BME280;2783;48.730;8.006;2023-02-14T12:35:17;101912.72;;;5.68;98.77
5522;BME280;2783;48.730;8.006;2023-02-14T12:40:19;101902.31;;;5.77;98.16
5522;BME280;2783;48.730;8.006;2023-02-14T12:42:54;101902.25;;;5.74;98.52
5522;BME280;2783;48.730;8.006;2023-02-14T12:45:29;101904.91;;;5.76;96.93
5522;BME280;2783;48.730;8.006;2023-02-14T12:50:35;101894.56;;;5.85;96.87
5522;BME280;2783;48.730;8.006;2023-02-14T12:53:10;101882.84;;;5.72;95.19
5522;BME280;2783;48.730;8.006;2023-02-14T12:55:50;101881.06;;;5.70;96.23
5522;BME280;2783;48.730;8.006;2023-02-14T12:58:26;101879.63;;;5.88;95.85
5522;BME280;2783;48.730;8.006;2023-02-14T13:11:33;101869.13;;;5.91;96.17
5522;BME280;2783;48.730;8.006;2023-02-14T13:21:37;101859.63;;;6.02;96.09
5522;BME280;2783;48.730;8.006;2023-02-14T13:24:24;101852.16;;;5.79;94.84
5522;BME280;2783;48.730;8.006;2023-02-14T13:26:50;101851.41;;;5.84;94.62
5522;BME280;2783;48.730;8.006;2023-02-14T13:29:20;101846.00;;;5.78;94.78
5522;BME280;2783;48.730;8.006;2023-02-14T13:31:47;101857.34;;;5.73;95.04
5522;BME280;2783;48.730;8.006;2023-02-14T13:34:24;101842.50;;;5.79;95.40
5522;BME280;2783;48.730;8.006;2023-02-14T13:36:52;101843.41;;;5.80;95.66
5522;BME280;2783;48.730;8.006;2023-02-14T13:39:41;101842.50;;;5.79;95.36
5522;BME280;2783;48.730;8.006;2023-02-14T13:42:04;101846.91;;;5.82;96.21
5522;BME280;2783;48.730;8.006;2023-02-14T13:44:48;101838.03;;;5.77;95.62
5522;BME280;2783;48.730;8.006;2023-02-14T13:47:20;101833.53;;;5.68;95.39
5522;BME280;2783;48.730;8.006;2023-02-14T13:49:54;101827.38;;;5.71;95.58
5522;BME280;2783;48.730;8.006;2023-02-14T13:55:07;101827.44;;;5.74;95.69
5522;BME280;2783;48.730;8.006;2023-02-14T13:57:33;101827.56;;;5.80;95.15
5522;BME280;2783;48.730;8.006;2023-02-14T14:06:09;101828.41;;;5.80;94.37
5522;BME280;2783;48.730;8.006;2023-02-14T14:10:45;101826.72;;;5.82;94.80
5522;BME280;2783;48.730;8.006;2023-02-14T14:18:41;101815.06;;;5.70;94.98
5522;BME280;2783;48.730;8.006;2023-02-14T14:21:58;101817.72;;;5.70;95.42
5522;BME280;2783;48.730;8.006;2023-02-14T14:26:39;101810.91;;;5.84;95.75
5522;BME280;2783;48.730;8.006;2023-02-14T14:29:08;101807.22;;;5.76;95.45
5522;BME280;2783;48.730;8.006;2023-02-14T14:31:35;101804.50;;;5.70;95.92
5522;BME280;2783;48.730;8.006;2023-02-14T14:34:00;101797.31;;;5.60;96.12
5522;BME280;2783;48.730;8.006;2023-02-14T14:36:26;101799.06;;;5.61;96.83
5522;BME280;2783;48.730;8.006;2023-02-14T14:38:51;101801.72;;;5.61;96.48
5522;BME280;2783;48.730;8.006;2023-02-14T14:41:18;101797.09;;;5.48;96.83
5522;BME280;2783;48.730;8.006;2023-02-14T14:43:44;101784.56;;;5.34;96.98
5522;BME280;2783;48.730;8.006;2023-02-14T14:46:11;101784.53;;;5.31;97.75
5522;BME280;2783;48.730;8.006;2023-02-14T14:48:42;101795.16;;;5.36;98.11
5522;BME280;2783;48.730;8.006;2023-02-14T14:51:14;101789.06;;;5.38;98.47
5522;BME280;2783;48.730;8.006;2023-02-14T14:53:44;101789.06;;;5.38;98.04
5522;BME280;2783;48.730;8.006;2023-02-14T14:56:16;101786.47;;;5.42;98.47
5522;BME280;2783;48.730;8.006;2023-02-14T14:58:43;101791.75;;;5.43;97.63
5522;BME280;2783;48.730;8.006;2023-02-14T15:01:13;101791.75;;;5.42;97.93
5522;BME280;2783;48.730;8.006;2023-02-14T15:03:51;101789.09;;;5.42;97.63
5522;BME280;2783;48.730;8.006;2023-02-14T15:06:18;101792.59;;;5.42;98.16
5522;BME280;2783;48.730;8.006;2023-02-14T15:08:43;101779.34;;;5.37;98.47
5522;BME280;2783;48.730;8.006;2023-02-14T15:14:07;101786.31;;;5.34;98.10
5522;BME280;2783;48.730;8.006;2023-02-14T15:16:43;101782.81;;;5.33;97.98
5522;BME280;2783;48.730;8.006;2023-02-14T15:19:10;101782.72;;;5.29;98.29
5522;BME280;2783;48.730;8.006;2023-02-14T15:21:39;101780.06;;;5.29;98.39
5522;BME280;2783;48.730;8.006;2023-02-14T15:24:04;101777.38;;;5.26;98.79
5522;BME280;2783;48.730;8.006;2023-02-14T15:26:35;101782.63;;;5.24;98.57
5522;BME280;2783;48.730;8.006;2023-02-14T15:29:01;101788.88;;;5.29;99.04
5522;BME280;2783;48.730;8.006;2023-02-14T15:31:32;101782.69;;;5.27;98.86
5522;BME280;2783;48.730;8.006;2023-02-14T15:33:58;101781.88;;;5.30;98.63